sensor_id;sensor_type;location;lat;lon;timestamp;pressure;altitude;pressure_sealevel;temperature;humidity
10006;BME280;5042;42.626;23.382;2023-05-20T00:00:00;94694.16;;;12.34;100.00
10006;BME280;5042;42.626;23.382;2023-05-20T00:02:28;94699.34;;;12.20;100.00
10006;BME280;5042;42.626;23.382;2023-05-20T00:04:54;94690.84;;;12.18;100.00
10006;BME280;5042;42.626;23.382;2023-05-20T00:07:23;94690.94;;;12.03;100.00
10006;BME280;5042;42.626;23.382;2023-05-20T00:09:50;94671.47;;;11.76;100.00
10006;BME280;5042;42.626;23.382;2023-05-20T00:12:17;94688.72;;;11.85;100.00
10006;BME280;5042;42.626;23.382;2023-05-20T00:14:44;94490.44;;;10.47;100.00
10006;BME280;5042;42.626;23.382;2023-05-20T00:17:11;94688.81;;;11.71;100.00
10006;BME280;5042;42.626;23.382;2023-05-20T00:19:38;94690.72;;;11.62;100.00
10006;BME280;5042;42.626;23.382;2023-05-20T00:22:05;94691.53;;;11.62;100.00
10006;BME280;5042;42.626;23.382;2023-05-20T00:24:33;94704.88;;;11.61;100.00
10006;BME280;5042;42.626;23.382;2023-05-20T00:27:00;94695.91;;;11.55;100.00
10006;BME280;5042;42.626;23.382;2023-05-20T00:29:27;94694.06;;;11.49;100.00
10006;BME280;5042;42.626;23.382;2023-05-20T00:31:53;94702.59;;;11.58;100.00
10006;BME280;5042;42.626;23.382;2023-05-20T00:34:20;94696.63;;;11.64;100.00
10006;BME280;5042;42.626;23.382;2023-05-20T00:36:47;94686.97;;;11.50;100.00
10006;BME280;5042;42.626;23.382;2023-05-20T00:39:14;94682.13;;;11.46;100.00
10006;BME280;5042;42.626;23.382;2023-05-20T00:41:42;94684.19;;;11.51;100.00
10006;BME280;5042;42.626;23.382;2023-05-20T00:44:08;94670.84;;;11.31;100.00
10006;BME280;5042;42.626;23.382;2023-05-20T00:46:35;94664.72;;;11.24;100.00
10006;BME280;5042;42.626;23.382;2023-05-20T00:49:02;94672.88;;;11.14;100.00
10006;BME280;5042;42.626;23.382;2023-05-20T00:51:29;94659.13;;;11.12;100.00
10006;BME280;5042;42.626;23.382;2023-05-20T00:53:57;94654.97;;;11.18;100.00
10006;BME280;5042;42.626;23.382;2023-05-20T00:56:24;94651.66;;;11.31;100.00
10006;BME280;5042;42.626;23.382;2023-05-20T00:58:52;94647.22;;;11.31;100.00
10006;BME280;5042;42.626;23.382;2023-05-20T01:01:19;94658.72;;;11.52;100.00
10006;BME280;5042;42.626;23.382;2023-05-20T01:03:46;94654.13;;;11.54;100.00
10006;BME280;5042;42.626;23.382;2023-05-20T01:06:14;94654.75;;;11.56;100.00
10006;BME280;5042;42.626;23.382;2023-05-20T01:08:40;94662.41;;;11.57;100.00
10006;BME280;5042;42.626;23.382;2023-05-20T01:11:10;94661.91;;;11.47;100.00
10006;BME280;5042;42.626;23.382;2023-05-20T01:13:42;94658.97;;;11.35;100.00
10006;BME280;5042;42.626;23.382;2023-05-20T01:16:13;94678.97;;;11.36;100.00
10006;BME280;5042;42.626;23.382;2023-05-20T01:18:41;94672.72;;;11.37;100.00
10006;BME280;5042;42.626;23.382;2023-05-20T01:21:11;94683.09;;;11.24;100.00
10006;BME280;5042;42.626;23.382;2023-05-20T01:23:40;94592.59;;;10.62;100.00
10006;BME280;5042;42.626;23.382;2023-05-20T01:26:08;94684.41;;;11.13;100.00
10006;BME280;5042;42.626;23.382;2023-05-20T01:28:38;94693.44;;;11.11;100.00
10006;BME280;5042;42.626;23.382;2023-05-20T01:31:09;94689.19;;;11.10;100.00
10006;BME280;5042;42.626;23.382;2023-05-20T01:33:38;94679.41;;;11.18;100.00
10006;BME280;5042;42.626;23.382;2023-05-20T01:36:07;94659.94;;;11.13;100.00
10006;BME280;5042;42.626;23.382;2023-05-20T01:38:35;94673.38;;;11.24;100.00
10006;BME280;5042;42.626;23.382;2023-05-20T01:41:06;94665.97;;;11.28;100.00
10006;BME280;5042;42.626;23.382;2023-05-20T01:43:33;94673.72;;;11.36;100.00
10006;BME280;5042;42.626;23.382;2023-05-20T01:46:04;94665.34;;;11.48;100.00
10006;BME280;5042;42.626;23.382;2023-05-20T01:48:31;94663.75;;;11.46;100.00
10006;BME280;5042;42.626;23.382;2023-05-20T01:50:58;94667.66;;;11.57;100.00
10006;BME280;5042;42.626;23.382;2023-05-20T01:53:25;94658.59;;;11.60;100.00
10006;BME280;5042;42.626;23.382;2023-05-20T01:55:52;94643.38;;;11.27;100.00
10006;BME280;5042;42.626;23.382;2023-05-20T01:58:20;94661.75;;;11.27;100.00
10006;BME280;5042;42.626;23.382;2023-05-20T02:00:47;94666.44;;;11.17;100.00
10006;BME280;5042;42.626;23.382;2023-05-20T02:03:13;94665.13;;;11.06;100.00
10006;BME280;5042;42.626;23.382;2023-05-20T02:05:40;94667.44;;;10.94;100.00
10006;BME280;5042;42.626;23.382;2023-05-20T02:08:07;94658.03;;;10.85;100.00
10006;BME280;5042;42.626;23.382;2023-05-20T02:10:34;94658.75;;;10.79;100.00
10006;BME280;5042;42.626;23.382;2023-05-20T02:13:00;94650.88;;;10.79;100.00
10006;BME280;5042;42.626;23.382;2023-05-20T02:15:28;94648.47;;;10.63;100.00
10006;BME280;5042;42.626;23.382;2023-05-20T02:17:55;94663.66;;;10.67;100.00
10006;BME280;5042;42.626;23.382;2023-05-20T02:20:23;94664.75;;;10.73;100.00
10006;BME280;5042;42.626;23.382;2023-05-20T02:22:49;94662.78;;;10.75;100.00
10006;BME280;5042;42.626;23.382;2023-05-20T02:25:16;94664.13;;;10.71;100.00
10006;BME280;5042;42.626;23.382;2023-05-20T02:27:43;94659.78;;;10.78;100.00
10006;BME280;5042;42.626;23.382;2023-05-20T02:30:10;94656.84;;;10.88;100.00
10006;BME280;5042;42.626;23.382;2023-05-20T02:32:38;94656.69;;;10.89;100.00
10006;BME280;5042;42.626;23.382;2023-05-20T02:35:06;94642.38;;;10.77;100.00
10006;BME280;5042;42.626;23.382;2023-05-20T02:37:33;94655.06;;;10.73;100.00
10006;BME280;5042;42.626;23.382;2023-05-20T02:39:59;94651.00;;;10.71;100.00
10006;BME280;5042;42.626;23.382;2023-05-20T02:42:26;94648.00;;;10.74;100.00
10006;BME280;5042;42.626;23.382;2023-05-20T02:44:53;94638.66;;;10.86;100.00
10006;BME280;5042;42.626;23.382;2023-05-20T02:47:22;94656.03;;;10.87;100.00
10006;BME280;5042;42.626;23.382;2023-05-20T02:49:50;94652.38;;;10.67;100.00
10006;BME280;5042;42.626;23.382;2023-05-20T02:52:17;94659.34;;;10.59;100.00
10006;BME280;5042;42.626;23.382;2023-05-20T02:54:45;94648.47;;;10.63;100.00
10006;BME280;5042;42.626;23.382;2023-05-20T02:57:12;94646.78;;;10.55;100.00
10006;BME280;5042;42.626;23.382;2023-05-20T02:59:39;94648.47;;;10.63;100.00
10006;BME280;5042;42.626;23.382;2023-05-20T03:02:06;94646.59;;;10.56;100.00
10006;BME280;5042;42.626;23.382;2023-05-20T03:04:33;94656.16;;;10.64;100.00
10006;BME280;5042;42.626;23.382;2023-05-20T03:07:04;94652.28;;;10.60;100.00
10006;BME280;5042;42.626;23.382;2023-05-20T03:09:31;94661.06;;;10.52;100.00
10006;BME280;5042;42.626;23.382;2023-05-20T03:11:58;94662.13;;;10.58;100.00
10006;BME280;5042;42.626;23.382;2023-05-20T03:14:25;94662.84;;;10.67;100.00
10006;BME280;5042;42.626;23.382;2023-05-20T03:16:52;94668.25;;;10.65;100.00
10006;BME280;5042;42.626;23.382;2023-05-20T03:19:20;94663.22;;;10.64;100.00
10006;BME280;5042;42.626;23.382;2023-05-20T03:21:47;94666.38;;;10.74;100.00
10006;BME280;5042;42.626;23.382;2023-05-20T03:24:16;94662.53;;;10.91;100.00
10006;BME280;5042;42.626;23.382;2023-05-20T03:26:43;94658.63;;;11.02;100.00
10006;BME280;5042;42.626;23.382;2023-05-20T03:29:10;94662.56;;;11.13;100.00
10006;BME280;5042;42.626;23.382;2023-05-20T03:31:37;94659.06;;;11.06;100.00
10006;BME280;5042;42.626;23.382;2023-05-20T03:34:04;94665.31;;;11.04;100.00
10006;BME280;5042;42.626;23.382;2023-05-20T03:36:31;94648.50;;;10.99;100.00
10006;BME280;5042;42.626;23.382;2023-05-20T03:38:58;94666.84;;;11.14;100.00
10006;BME280;5042;42.626;23.382;2023-05-20T03:41:27;94672.41;;;11.25;100.00
10006;BME280;5042;42.626;23.382;2023-05-20T03:43:54;94678.59;;;11.18;100.00
10006;BME280;5042;42.626;23.382;2023-05-20T03:46:20;94694.69;;;11.15;100.00
10006;BME280;5042;42.626;23.382;2023-05-20T03:48:47;94675.69;;;11.13;100.00
10006;BME280;5042;42.626;23.382;2023-05-20T03:51:14;94689.44;;;11.15;100.00
10006;BME280;5042;42.626;23.382;2023-05-20T03:53:41;94683.47;;;11.21;100.00
10006;BME280;5042;42.626;23.382;2023-05-20T03:56:07;94689.59;;;11.28;100.00
10006;BME280;5042;42.626;23.382;2023-05-20T03:58:35;94690.09;;;11.38;100.00
10006;BME280;5042;42.626;23.382;2023-05-20T04:01:03;94689.84;;;11.55;100.00
10006;BME280;5042;42.626;23.382;2023-05-20T04:03:30;94695.50;;;11.73;100.00
10006;BME280;5042;42.626;23.382;2023-05-20T04:05:56;94700.19;;;11.78;100.00
10006;BME280;5042;42.626;23.382;2023-05-20T04:08:23;94702.59;;;12.22;100.00
10006;BME280;5042;42.626;23.382;2023-05-20T04:10:54;94706.22;;;12.84;100.00
10006;BME280;5042;42.626;23.382;2023-05-20T04:13:20;94700.38;;;13.37;100.00
10006;BME280;5042;42.626;23.382;2023-05-20T04:15:51;94687.81;;;13.52;100.00
10006;BME280;5042;42.626;23.382;2023-05-20T04:18:18;94677.72;;;13.76;100.00
10006;BME280;5042;42.626;23.382;2023-05-20T04:20:45;94687.06;;;13.92;100.00
10006;BME280;5042;42.626;23.382;2023-05-20T04:23:12;94702.91;;;14.25;100.00
10006;BME280;5042;42.626;23.382;2023-05-20T04:25:38;94703.31;;;14.62;100.00
10006;BME280;5042;42.626;23.382;2023-05-20T04:28:06;94695.75;;;14.79;100.00
10006;BME280;5042;42.626;23.382;2023-05-20T04:30:33;94700.19;;;15.37;100.00
10006;BME280;5042;42.626;23.382;2023-05-20T04:33:01;94695.28;;;15.85;100.00
10006;BME280;5042;42.626;23.382;2023-05-20T04:35:28;94694.53;;;16.03;100.00
10006;BME280;5042;42.626;23.382;2023-05-20T04:37:55;94698.56;;;16.06;100.00
10006;BME280;5042;42.626;23.382;2023-05-20T04:40:21;94695.94;;;16.31;100.00
10006;BME280;5042;42.626;23.382;2023-05-20T04:42:48;94706.91;;;16.78;100.00
10006;BME280;5042;42.626;23.382;2023-05-20T04:45:15;94712.28;;;17.08;100.00
10006;BME280;5042;42.626;23.382;2023-05-20T04:47:42;94711.09;;;17.41;100.00
10006;BME280;5042;42.626;23.382;2023-05-20T04:50:11;94711.69;;;17.73;100.00
10006;BME280;5042;42.626;23.382;2023-05-20T04:52:40;94609.97;;;16.95;100.00
10006;BME280;5042;42.626;23.382;2023-05-20T04:55:08;94706.63;;;18.02;100.00
10006;BME280;5042;42.626;23.382;2023-05-20T04:57:36;94715.81;;;18.41;100.00
10006;BME280;5042;42.626;23.382;2023-05-20T05:00:06;94716.09;;;18.21;100.00
10006;BME280;5042;42.626;23.382;2023-05-20T05:02:34;94710.09;;;18.14;100.00
10006;BME280;5042;42.626;23.382;2023-05-20T05:05:01;94728.66;;;18.80;100.00
10006;BME280;5042;42.626;23.382;2023-05-20T05:07:30;94732.75;;;19.23;100.00
10006;BME280;5042;42.626;23.382;2023-05-20T05:09:56;94729.00;;;19.47;100.00
10006;BME280;5042;42.626;23.382;2023-05-20T05:12:23;94721.09;;;19.12;100.00
10006;BME280;5042;42.626;23.382;2023-05-20T05:14:50;94723.25;;;19.39;100.00
10006;BME280;5042;42.626;23.382;2023-05-20T05:17:16;94721.25;;;19.86;100.00
10006;BME280;5042;42.626;23.382;2023-05-20T05:19:43;94727.66;;;19.33;100.00
10006;BME280;5042;42.626;23.382;2023-05-20T05:22:10;94732.13;;;18.80;100.00
10006;BME280;5042;42.626;23.382;2023-05-20T05:24:38;94722.38;;;19.10;100.00
10006;BME280;5042;42.626;23.382;2023-05-20T05:27:05;94718.22;;;19.54;100.00
10006;BME280;5042;42.626;23.382;2023-05-20T05:29:32;94713.84;;;19.88;100.00
10006;BME280;5042;42.626;23.382;2023-05-20T05:31:59;94707.81;;;20.56;99.83
10006;BME280;5042;42.626;23.382;2023-05-20T05:34:27;94714.44;;;20.92;94.54
10006;BME280;5042;42.626;23.382;2023-05-20T05:36:54;94709.09;;;21.31;98.27
10006;BME280;5042;42.626;23.382;2023-05-20T05:39:21;94713.56;;;21.47;93.65
10006;BME280;5042;42.626;23.382;2023-05-20T05:41:49;94713.53;;;21.03;96.84
10006;BME280;5042;42.626;23.382;2023-05-20T05:44:15;94694.88;;;21.03;98.44
10006;BME280;5042;42.626;23.382;2023-05-20T05:46:42;94708.47;;;21.68;96.10
10006;BME280;5042;42.626;23.382;2023-05-20T05:49:09;94713.19;;;21.60;94.55
10006;BME280;5042;42.626;23.382;2023-05-20T05:51:36;94718.44;;;22.27;89.79
10006;BME280;5042;42.626;23.382;2023-05-20T05:54:03;94723.28;;;22.67;88.96
10006;BME280;5042;42.626;23.382;2023-05-20T05:56:30;94723.09;;;23.16;88.48
10006;BME280;5042;42.626;23.382;2023-05-20T05:58:58;94718.66;;;23.37;80.00
10006;BME280;5042;42.626;23.382;2023-05-20T06:01:25;94713.31;;;23.42;77.67
10006;BME280;5042;42.626;23.382;2023-05-20T06:03:51;94719.09;;;23.77;74.59
10006;BME280;5042;42.626;23.382;2023-05-20T06:06:18;94707.94;;;24.31;66.59
10006;BME280;5042;42.626;23.382;2023-05-20T06:08:45;94719.47;;;24.67;63.65
10006;BME280;5042;42.626;23.382;2023-05-20T06:11:12;94704.44;;;24.97;61.46
10006;BME280;5042;42.626;23.382;2023-05-20T06:13:38;94710.81;;;25.16;61.01
10006;BME280;5042;42.626;23.382;2023-05-20T06:16:06;94710.56;;;25.23;56.56
10006;BME280;5042;42.626;23.382;2023-05-20T06:18:33;94708.22;;;24.65;56.47
10006;BME280;5042;42.626;23.382;2023-05-20T06:21:02;94709.47;;;23.91;60.47
10006;BME280;5042;42.626;23.382;2023-05-20T06:23:28;94708.88;;;23.63;63.56
10006;BME280;5042;42.626;23.382;2023-05-20T06:25:56;94715.91;;;23.90;59.20
10006;BME280;5042;42.626;23.382;2023-05-20T06:28:23;94711.13;;;24.18;58.25
10006;BME280;5042;42.626;23.382;2023-05-20T06:30:50;94701.53;;;24.52;61.40
10006;BME280;5042;42.626;23.382;2023-05-20T06:33:19;94701.22;;;24.39;60.25
10006;BME280;5042;42.626;23.382;2023-05-20T06:35:50;94679.00;;;24.23;65.17
10006;BME280;5042;42.626;23.382;2023-05-20T06:38:16;94695.88;;;24.28;62.56
10006;BME280;5042;42.626;23.382;2023-05-20T06:40:43;94686.47;;;23.85;59.82
10006;BME280;5042;42.626;23.382;2023-05-20T06:43:10;94682.47;;;23.19;62.29
10006;BME280;5042;42.626;23.382;2023-05-20T06:45:37;94687.84;;;23.29;62.12
10006;BME280;5042;42.626;23.382;2023-05-20T06:48:04;94678.56;;;22.95;63.99
10006;BME280;5042;42.626;23.382;2023-05-20T06:50:32;94666.63;;;22.65;62.46
10006;BME280;5042;42.626;23.382;2023-05-20T06:52:59;94675.69;;;22.27;65.53
10006;BME280;5042;42.626;23.382;2023-05-20T06:55:26;94678.44;;;22.05;66.68
10006;BME280;5042;42.626;23.382;2023-05-20T06:57:53;94671.13;;;22.22;72.16
10006;BME280;5042;42.626;23.382;2023-05-20T07:00:20;94684.63;;;22.80;77.35
10006;BME280;5042;42.626;23.382;2023-05-20T07:02:46;94680.16;;;23.43;71.32
10006;BME280;5042;42.626;23.382;2023-05-20T07:05:13;94690.75;;;24.01;64.52
10006;BME280;5042;42.626;23.382;2023-05-20T07:07:41;94691.34;;;24.65;61.21
10006;BME280;5042;42.626;23.382;2023-05-20T07:10:08;94688.13;;;24.78;62.27
10006;BME280;5042;42.626;23.382;2023-05-20T07:12:35;94682.75;;;24.78;62.61
10006;BME280;5042;42.626;23.382;2023-05-20T07:15:02;94677.81;;;25.26;64.08
10006;BME280;5042;42.626;23.382;2023-05-20T07:17:29;94680.84;;;25.69;59.45
10006;BME280;5042;42.626;23.382;2023-05-20T07:19:55;94684.00;;;25.81;59.27
10006;BME280;5042;42.626;23.382;2023-05-20T07:22:22;94677.81;;;25.81;56.72
10006;BME280;5042;42.626;23.382;2023-05-20T07:24:50;94675.25;;;24.70;56.27
10006;BME280;5042;42.626;23.382;2023-05-20T07:27:17;94676.31;;;24.33;55.70
10006;BME280;5042;42.626;23.382;2023-05-20T07:29:44;94654.78;;;23.61;57.34
10006;BME280;5042;42.626;23.382;2023-05-20T07:32:10;94664.19;;;23.06;65.90
10006;BME280;5042;42.626;23.382;2023-05-20T07:34:37;94670.78;;;23.51;65.64
10006;BME280;5042;42.626;23.382;2023-05-20T07:37:04;94672.03;;;24.17;66.50
10006;BME280;5042;42.626;23.382;2023-05-20T07:39:31;94677.34;;;24.88;64.58
10006;BME280;5042;42.626;23.382;2023-05-20T07:41:59;94682.72;;;24.88;58.75
10006;BME280;5042;42.626;23.382;2023-05-20T07:44:26;94678.75;;;24.70;58.84
10006;BME280;5042;42.626;23.382;2023-05-20T07:46:53;94621.94;;;24.43;62.63
10006;BME280;5042;42.626;23.382;2023-05-20T07:49:20;94684.84;;;25.07;61.01
10006;BME280;5042;42.626;23.382;2023-05-20T07:51:47;94655.56;;;25.15;59.52
10006;BME280;5042;42.626;23.382;2023-05-20T07:54:14;94668.16;;;25.15;61.82
10006;BME280;5042;42.626;23.382;2023-05-20T07:56:41;94668.19;;;25.10;58.53
10006;BME280;5042;42.626;23.382;2023-05-20T07:59:09;94680.88;;;24.02;55.80
10006;BME280;5042;42.626;23.382;2023-05-20T08:01:36;94670.66;;;23.83;63.81
10006;BME280;5042;42.626;23.382;2023-05-20T08:04:03;94668.44;;;23.60;58.46
10006;BME280;5042;42.626;23.382;2023-05-20T08:06:30;94669.59;;;23.95;64.12
10006;BME280;5042;42.626;23.382;2023-05-20T08:08:57;94667.31;;;23.45;61.48
10006;BME280;5042;42.626;23.382;2023-05-20T08:11:24;94667.81;;;22.84;66.60
10006;BME280;5042;42.626;23.382;2023-05-20T08:13:51;94668.53;;;23.12;66.62
10006;BME280;5042;42.626;23.382;2023-05-20T08:16:20;94668.22;;;23.08;66.21
10006;BME280;5042;42.626;23.382;2023-05-20T08:18:46;94668.53;;;23.12;67.92
10006;BME280;5042;42.626;23.382;2023-05-20T08:21:13;94666.06;;;23.05;69.37
10006;BME280;5042;42.626;23.382;2023-05-20T08:23:40;94662.16;;;23.18;71.50
10006;BME280;5042;42.626;23.382;2023-05-20T08:26:07;94661.66;;;23.42;69.49
10006;BME280;5042;42.626;23.382;2023-05-20T08:28:34;94650.25;;;23.67;75.59
10006;BME280;5042;42.626;23.382;2023-05-20T08:31:02;94659.69;;;23.95;65.07
10006;BME280;5042;42.626;23.382;2023-05-20T08:33:30;94643.34;;;23.91;63.06
10006;BME280;5042;42.626;23.382;2023-05-20T08:35:57;94653.50;;;23.06;69.59
10006;BME280;5042;42.626;23.382;2023-05-20T08:38:23;94653.00;;;22.67;68.00
10006;BME280;5042;42.626;23.382;2023-05-20T08:40:51;94639.66;;;22.67;68.73
10006;BME280;5042;42.626;23.382;2023-05-20T08:43:18;94650.94;;;23.26;70.47
10006;BME280;5042;42.626;23.382;2023-05-20T08:45:46;94650.59;;;23.13;66.81
10006;BME280;5042;42.626;23.382;2023-05-20T08:48:13;94662.75;;;22.88;62.14
10006;BME280;5042;42.626;23.382;2023-05-20T08:50:44;94654.06;;;22.65;67.19
10006;BME280;5042;42.626;23.382;2023-05-20T08:53:13;94639.66;;;22.67;64.90
10006;BME280;5042;42.626;23.382;2023-05-20T08:55:42;94655.41;;;22.68;72.94
10006;BME280;5042;42.626;23.382;2023-05-20T08:58:13;94660.22;;;22.66;66.40
10006;BME280;5042;42.626;23.382;2023-05-20T09:00:42;94657.41;;;22.46;67.35
10006;BME280;5042;42.626;23.382;2023-05-20T09:03:08;94650.94;;;22.36;68.58
10006;BME280;5042;42.626;23.382;2023-05-20T09:05:35;94640.19;;;22.26;69.62
10006;BME280;5042;42.626;23.382;2023-05-20T09:08:08;94639.66;;;22.67;70.23
10006;BME280;5042;42.626;23.382;2023-05-20T09:10:36;94632.72;;;23.18;76.46
10006;BME280;5042;42.626;23.382;2023-05-20T09:13:04;94629.25;;;23.23;69.49
10006;BME280;5042;42.626;23.382;2023-05-20T09:15:31;94620.72;;;23.36;80.86
10006;BME280;5042;42.626;23.382;2023-05-20T09:17:58;94612.06;;;23.03;66.78
10006;BME280;5042;42.626;23.382;2023-05-20T09:20:26;94624.22;;;23.42;68.30
10006;BME280;5042;42.626;23.382;2023-05-20T09:22:58;94629.63;;;23.73;63.55
10006;BME280;5042;42.626;23.382;2023-05-20T09:25:27;94628.03;;;23.61;67.04
10006;BME280;5042;42.626;23.382;2023-05-20T09:27:54;94622.13;;;23.54;66.79
10006;BME280;5042;42.626;23.382;2023-05-20T09:30:21;94618.88;;;23.42;64.95
10006;BME280;5042;42.626;23.382;2023-05-20T09:32:52;94614.06;;;23.44;77.68
10006;BME280;5042;42.626;23.382;2023-05-20T09:35:19;94622.28;;;23.22;63.30
10006;BME280;5042;42.626;23.382;2023-05-20T09:37:47;94617.47;;;22.66;66.25
10006;BME280;5042;42.626;23.382;2023-05-20T09:40:15;94612.47;;;22.85;64.94
10006;BME280;5042;42.626;23.382;2023-05-20T09:42:50;94583.19;;;22.53;64.21
10006;BME280;5042;42.626;23.382;2023-05-20T09:45:18;94604.91;;;22.67;66.23
10006;BME280;5042;42.626;23.382;2023-05-20T09:47:46;94608.19;;;22.79;64.23
10006;BME280;5042;42.626;23.382;2023-05-20T09:50:13;94593.50;;;22.81;68.75
10006;BME280;5042;42.626;23.382;2023-05-20T09:52:42;94587.56;;;22.74;64.17
10006;BME280;5042;42.626;23.382;2023-05-20T09:55:09;94588.13;;;22.76;71.47
10006;BME280;5042;42.626;23.382;2023-05-20T09:57:37;94587.00;;;22.67;67.73
10006;BME280;5042;42.626;23.382;2023-05-20T10:00:06;94593.72;;;22.27;67.69
10006;BME280;5042;42.626;23.382;2023-05-20T10:02:36;94572.75;;;21.76;72.35
10006;BME280;5042;42.626;23.382;2023-05-20T10:05:06;94587.59;;;21.99;74.64
10006;BME280;5042;42.626;23.382;2023-05-20T10:07:56;94592.88;;;21.89;72.06
10006;BME280;5042;42.626;23.382;2023-05-20T10:10:32;94584.66;;;21.96;70.58
10006;BME280;5042;42.626;23.382;2023-05-20T10:13:12;94573.44;;;22.26;76.91
10006;BME280;5042;42.626;23.382;2023-05-20T10:15:48;94577.25;;;22.40;70.95
10006;BME280;5042;42.626;23.382;2023-05-20T10:18:29;94550.09;;;21.79;69.40
10006;BME280;5042;42.626;23.382;2023-05-20T10:20:59;94557.75;;;22.02;69.48
10006;BME280;5042;42.626;23.382;2023-05-20T10:23:29;94564.09;;;21.96;68.34
10006;BME280;5042;42.626;23.382;2023-05-20T10:25:57;94563.13;;;22.08;70.68
10006;BME280;5042;42.626;23.382;2023-05-20T10:28:27;94534.75;;;22.34;70.53
10006;BME280;5042;42.626;23.382;2023-05-20T10:30:57;94547.94;;;22.61;69.48
10006;BME280;5042;42.626;23.382;2023-05-20T10:33:25;94557.41;;;22.79;60.82
10006;BME280;5042;42.626;23.382;2023-05-20T10:35:53;94563.19;;;22.60;60.82
10006;BME280;5042;42.626;23.382;2023-05-20T10:38:20;94545.34;;;21.86;62.42
10006;BME280;5042;42.626;23.382;2023-05-20T10:40:47;94555.06;;;22.02;62.42
10006;BME280;5042;42.626;23.382;2023-05-20T10:43:16;94545.72;;;21.68;64.57
10006;BME280;5042;42.626;23.382;2023-05-20T10:45:47;94539.84;;;21.38;63.58
10006;BME280;5042;42.626;23.382;2023-05-20T10:48:27;94513.97;;;21.39;68.53
10006;BME280;5042;42.626;23.382;2023-05-20T10:50:54;94532.28;;;21.52;67.76
10006;BME280;5042;42.626;23.382;2023-05-20T10:53:23;94540.16;;;21.42;64.07
10006;BME280;5042;42.626;23.382;2023-05-20T10:55:51;94534.13;;;21.25;66.88
10006;BME280;5042;42.626;23.382;2023-05-20T10:58:20;94521.06;;;21.28;69.72
10006;BME280;5042;42.626;23.382;2023-05-20T11:00:47;94514.81;;;21.39;66.53
10006;BME280;5042;42.626;23.382;2023-05-20T11:03:15;94494.75;;;21.37;64.62
10006;BME280;5042;42.626;23.382;2023-05-20T11:05:45;94522.63;;;21.78;64.73
10006;BME280;5042;42.626;23.382;2023-05-20T11:08:12;94521.97;;;22.03;64.12
10006;BME280;5042;42.626;23.382;2023-05-20T11:10:41;94505.38;;;21.96;61.21
10006;BME280;5042;42.626;23.382;2023-05-20T11:13:11;94527.94;;;21.78;59.65
10006;BME280;5042;42.626;23.382;2023-05-20T11:15:39;94537.09;;;21.55;60.57
10006;BME280;5042;42.626;23.382;2023-05-20T11:18:05;94510.31;;;21.18;63.08
10006;BME280;5042;42.626;23.382;2023-05-20T11:20:32;94523.06;;;21.38;66.84
10006;BME280;5042;42.626;23.382;2023-05-20T11:23:01;94524.34;;;21.35;65.35
10006;BME280;5042;42.626;23.382;2023-05-20T11:25:28;94520.28;;;21.28;64.09
10006;BME280;5042;42.626;23.382;2023-05-20T11:27:55;94500.59;;;21.34;69.80
10006;BME280;5042;42.626;23.382;2023-05-20T11:30:22;94514.22;;;21.37;64.96
10006;BME280;5042;42.626;23.382;2023-05-20T11:32:56;94512.28;;;21.01;67.75
10006;BME280;5042;42.626;23.382;2023-05-20T11:35:24;94492.66;;;20.85;66.94
10006;BME280;5042;42.626;23.382;2023-05-20T11:38:02;94478.88;;;20.66;69.15
10006;BME280;5042;42.626;23.382;2023-05-20T11:40:30;94493.72;;;20.84;68.50
10006;BME280;5042;42.626;23.382;2023-05-20T11:42:59;94495.59;;;20.61;70.98
10006;BME280;5042;42.626;23.382;2023-05-20T11:45:26;94486.84;;;20.66;72.66
10006;BME280;5042;42.626;23.382;2023-05-20T11:48:01;94495.53;;;20.56;70.63
10006;BME280;5042;42.626;23.382;2023-05-20T11:50:33;94481.00;;;20.47;73.44
10006;BME280;5042;42.626;23.382;2023-05-20T11:53:02;94493.44;;;20.58;76.57
10006;BME280;5042;42.626;23.382;2023-05-20T11:55:30;94485.22;;;20.60;71.99
10006;BME280;5042;42.626;23.382;2023-05-20T11:57:58;94477.38;;;20.53;73.12
10006;BME280;5042;42.626;23.382;2023-05-20T12:00:25;94482.78;;;20.58;74.02
10006;BME280;5042;42.626;23.382;2023-05-20T12:02:52;94482.78;;;20.58;76.86
10006;BME280;5042;42.626;23.382;2023-05-20T12:05:19;94467.69;;;20.47;75.82
10006;BME280;5042;42.626;23.382;2023-05-20T12:07:46;94472.91;;;20.37;78.65
10006;BME280;5042;42.626;23.382;2023-05-20T12:10:15;94463.00;;;20.32;78.43
10006;BME280;5042;42.626;23.382;2023-05-20T12:12:42;94461.88;;;20.06;76.05
10006;BME280;5042;42.626;23.382;2023-05-20T12:15:10;94471.19;;;19.86;76.91
10006;BME280;5042;42.626;23.382;2023-05-20T12:17:45;94469.59;;;19.68;79.96
10006;BME280;5042;42.626;23.382;2023-05-20T12:20:13;94484.88;;;19.61;82.19
10006;BME280;5042;42.626;23.382;2023-05-20T12:22:41;94496.28;;;19.11;86.35
10006;BME280;5042;42.626;23.382;2023-05-20T12:25:10;94510.63;;;18.70;84.64
10006;BME280;5042;42.626;23.382;2023-05-20T12:27:40;94509.44;;;18.49;88.85
10006;BME280;5042;42.626;23.382;2023-05-20T12:30:08;94512.28;;;18.18;98.48
10006;BME280;5042;42.626;23.382;2023-05-20T12:32:36;94443.22;;;17.31;100.00
10006;BME280;5042;42.626;23.382;2023-05-20T12:35:03;94527.00;;;17.67;100.00
10006;BME280;5042;42.626;23.382;2023-05-20T12:37:30;94531.94;;;17.52;100.00
10006;BME280;5042;42.626;23.382;2023-05-20T12:39:57;94522.50;;;17.44;100.00
10006;BME280;5042;42.626;23.382;2023-05-20T12:42:24;94521.66;;;17.44;100.00
10006;BME280;5042;42.626;23.382;2023-05-20T12:44:52;94516.38;;;17.55;100.00
10006;BME280;5042;42.626;23.382;2023-05-20T12:47:20;94520.09;;;17.66;100.00
10006;BME280;5042;42.626;23.382;2023-05-20T12:49:46;94505.47;;;17.75;100.00
10006;BME280;5042;42.626;23.382;2023-05-20T12:52:13;94521.41;;;17.99;100.00
10006;BME280;5042;42.626;23.382;2023-05-20T12:54:40;94513.97;;;18.25;100.00
10006;BME280;5042;42.626;23.382;2023-05-20T12:57:07;94512.06;;;18.60;100.00